Elmer, Missouri
Current Conditions -  °F | °C
As of 3:55 AM on Thursday 23 Oct 2014 (Local Time) from KIRK Reporting Station
Few Clouds Few Clouds  
Wind Chill: 45°   Ceiling: Unl
Heat Index: 49°   Visibility: 10mi
Dew Point: 44°   Wind: 8mph
Humidity: 83%   Direction: 170°S
Pressure: 30.14"   Gusts: NA
Location:  39.96°N, 92.65°W
Report Text: KIRK 230855Z AUTO 17007KT 10SM FEW075 09/07 A3014 RMK AO2 SLP209 T00940067 57007
Loading
Personal Weather Stations






























Interactive Weather Map
Tropical Storm Tracking
New forecast layout! Learn more

10-Day Weather Forecast

Advertisements
Track Severe Weather on mobile